sensor_id;sensor_type;location;lat;lon;timestamp;P1;durP1;ratioP1;P2;durP2;ratioP2
5923;SDS011;2987;50.884;14.818;2023-04-25T00:00:21;2.47;;;2.27;;
5923;SDS011;2987;50.884;14.818;2023-04-25T00:02:47;3.20;;;2.70;;
5923;SDS011;2987;50.884;14.818;2023-04-25T00:05:13;4.30;;;2.20;;
5923;SDS011;2987;50.884;14.818;2023-04-25T00:07:41;2.57;;;2.40;;
5923;SDS011;2987;50.884;14.818;2023-04-25T00:10:08;2.23;;;2.13;;
5923;SDS011;2987;50.884;14.818;2023-04-25T00:12:36;4.30;;;2.50;;
5923;SDS011;2987;50.884;14.818;2023-04-25T00:15:03;2.30;;;2.20;;
5923;SDS011;2987;50.884;14.818;2023-04-25T00:17:30;4.87;;;2.30;;
5923;SDS011;2987;50.884;14.818;2023-04-25T00:19:56;2.60;;;2.23;;
5923;SDS011;2987;50.884;14.818;2023-04-25T00:22:23;3.10;;;2.20;;
5923;SDS011;2987;50.884;14.818;2023-04-25T00:24:49;2.33;;;2.13;;
5923;SDS011;2987;50.884;14.818;2023-04-25T00:27:15;2.20;;;2.10;;
5923;SDS011;2987;50.884;14.818;2023-04-25T00:29:41;2.90;;;2.50;;
5923;SDS011;2987;50.884;14.818;2023-04-25T00:32:08;3.80;;;2.70;;
5923;SDS011;2987;50.884;14.818;2023-04-25T00:34:35;4.83;;;2.23;;
5923;SDS011;2987;50.884;14.818;2023-04-25T00:37:01;2.57;;;2.37;;
5923;SDS011;2987;50.884;14.818;2023-04-25T00:39:27;3.97;;;2.40;;
5923;SDS011;2987;50.884;14.818;2023-04-25T00:41:54;3.00;;;2.53;;
5923;SDS011;2987;50.884;14.818;2023-04-25T00:44:20;2.80;;;2.60;;
5923;SDS011;2987;50.884;14.818;2023-04-25T00:46:47;3.97;;;2.60;;
5923;SDS011;2987;50.884;14.818;2023-04-25T00:49:15;2.57;;;2.37;;
5923;SDS011;2987;50.884;14.818;2023-04-25T00:51:43;3.70;;;3.37;;
5923;SDS011;2987;50.884;14.818;2023-04-25T00:54:11;4.80;;;3.90;;
5923;SDS011;2987;50.884;14.818;2023-04-25T00:56:38;7.00;;;4.50;;
5923;SDS011;2987;50.884;14.818;2023-04-25T00:59:04;3.97;;;3.47;;
5923;SDS011;2987;50.884;14.818;2023-04-25T01:01:31;6.00;;;3.20;;
5923;SDS011;2987;50.884;14.818;2023-04-25T01:03:58;5.33;;;2.83;;
5923;SDS011;2987;50.884;14.818;2023-04-25T01:06:26;3.90;;;2.53;;
5923;SDS011;2987;50.884;14.818;2023-04-25T01:08:52;2.40;;;2.20;;
5923;SDS011;2987;50.884;14.818;2023-04-25T01:11:20;2.37;;;2.17;;
5923;SDS011;2987;50.884;14.818;2023-04-25T01:13:46;2.73;;;2.53;;
5923;SDS011;2987;50.884;14.818;2023-04-25T01:16:11;3.37;;;2.50;;
5923;SDS011;2987;50.884;14.818;2023-04-25T01:18:38;5.13;;;2.30;;
5923;SDS011;2987;50.884;14.818;2023-04-25T01:21:07;4.73;;;2.73;;
5923;SDS011;2987;50.884;14.818;2023-04-25T01:23:36;3.10;;;2.90;;
5923;SDS011;2987;50.884;14.818;2023-04-25T01:28:43;3.27;;;2.97;;
5923;SDS011;2987;50.884;14.818;2023-04-25T01:31:11;3.27;;;2.77;;
5923;SDS011;2987;50.884;14.818;2023-04-25T01:33:38;5.03;;;3.50;;
5923;SDS011;2987;50.884;14.818;2023-04-25T01:36:04;4.30;;;3.90;;
5923;SDS011;2987;50.884;14.818;2023-04-25T01:38:34;3.47;;;3.17;;
5923;SDS011;2987;50.884;14.818;2023-04-25T01:41:00;3.87;;;3.37;;
5923;SDS011;2987;50.884;14.818;2023-04-25T01:43:27;5.03;;;3.10;;
5923;SDS011;2987;50.884;14.818;2023-04-25T01:45:53;3.47;;;3.17;;
5923;SDS011;2987;50.884;14.818;2023-04-25T01:48:20;3.77;;;3.43;;
5923;SDS011;2987;50.884;14.818;2023-04-25T01:50:47;3.93;;;3.27;;
5923;SDS011;2987;50.884;14.818;2023-04-25T01:53:14;3.43;;;3.13;;
5923;SDS011;2987;50.884;14.818;2023-04-25T01:55:42;3.57;;;3.23;;
5923;SDS011;2987;50.884;14.818;2023-04-25T01:58:12;3.50;;;3.10;;
5923;SDS011;2987;50.884;14.818;2023-04-25T02:00:59;3.53;;;3.23;;
5923;SDS011;2987;50.884;14.818;2023-04-25T02:03:25;3.60;;;3.30;;
5923;SDS011;2987;50.884;14.818;2023-04-25T02:05:51;5.40;;;4.23;;
5923;SDS011;2987;50.884;14.818;2023-04-25T02:08:17;5.27;;;4.30;;
5923;SDS011;2987;50.884;14.818;2023-04-25T02:10:44;4.63;;;4.13;;
5923;SDS011;2987;50.884;14.818;2023-04-25T02:13:16;4.93;;;4.20;;
5923;SDS011;2987;50.884;14.818;2023-04-25T02:15:56;3.90;;;3.60;;
5923;SDS011;2987;50.884;14.818;2023-04-25T02:18:23;4.50;;;4.10;;
5923;SDS011;2987;50.884;14.818;2023-04-25T02:20:49;4.13;;;3.83;;
5923;SDS011;2987;50.884;14.818;2023-04-25T02:23:15;3.60;;;3.30;;
5923;SDS011;2987;50.884;14.818;2023-04-25T02:25:41;6.33;;;3.80;;
5923;SDS011;2987;50.884;14.818;2023-04-25T02:30:35;5.87;;;3.57;;
5923;SDS011;2987;50.884;14.818;2023-04-25T02:33:04;4.37;;;3.90;;
5923;SDS011;2987;50.884;14.818;2023-04-25T02:35:30;3.90;;;3.40;;
5923;SDS011;2987;50.884;14.818;2023-04-25T02:37:56;3.80;;;3.50;;
5923;SDS011;2987;50.884;14.818;2023-04-25T02:40:22;5.40;;;3.43;;
5923;SDS011;2987;50.884;14.818;2023-04-25T02:42:49;4.47;;;3.83;;
5923;SDS011;2987;50.884;14.818;2023-04-25T02:45:15;5.07;;;3.73;;
5923;SDS011;2987;50.884;14.818;2023-04-25T02:47:41;4.50;;;4.10;;
5923;SDS011;2987;50.884;14.818;2023-04-25T02:50:07;3.90;;;3.60;;
5923;SDS011;2987;50.884;14.818;2023-04-25T02:52:34;4.67;;;4.20;;
5923;SDS011;2987;50.884;14.818;2023-04-25T02:55:09;5.37;;;4.60;;
5923;SDS011;2987;50.884;14.818;2023-04-25T02:57:37;5.57;;;4.57;;
5923;SDS011;2987;50.884;14.818;2023-04-25T03:00:03;5.97;;;3.63;;
5923;SDS011;2987;50.884;14.818;2023-04-25T03:02:30;4.20;;;3.50;;
5923;SDS011;2987;50.884;14.818;2023-04-25T03:04:56;6.97;;;3.30;;
5923;SDS011;2987;50.884;14.818;2023-04-25T03:07:23;5.57;;;3.50;;
5923;SDS011;2987;50.884;14.818;2023-04-25T03:09:49;3.40;;;3.20;;
5923;SDS011;2987;50.884;14.818;2023-04-25T03:12:15;4.20;;;3.33;;
5923;SDS011;2987;50.884;14.818;2023-04-25T03:14:42;4.03;;;3.50;;
5923;SDS011;2987;50.884;14.818;2023-04-25T03:17:08;5.00;;;3.40;;
5923;SDS011;2987;50.884;14.818;2023-04-25T03:19:34;4.13;;;3.70;;
5923;SDS011;2987;50.884;14.818;2023-04-25T03:22:01;4.60;;;4.20;;
5923;SDS011;2987;50.884;14.818;2023-04-25T03:24:28;6.93;;;5.03;;
5923;SDS011;2987;50.884;14.818;2023-04-25T03:26:54;11.17;;;6.00;;
5923;SDS011;2987;50.884;14.818;2023-04-25T03:29:20;8.33;;;5.63;;
5923;SDS011;2987;50.884;14.818;2023-04-25T03:31:50;7.40;;;6.10;;
5923;SDS011;2987;50.884;14.818;2023-04-25T03:34:18;6.90;;;5.90;;
5923;SDS011;2987;50.884;14.818;2023-04-25T03:36:44;5.63;;;4.83;;
5923;SDS011;2987;50.884;14.818;2023-04-25T03:39:11;4.80;;;4.37;;
5923;SDS011;2987;50.884;14.818;2023-04-25T03:41:39;6.10;;;4.60;;
5923;SDS011;2987;50.884;14.818;2023-04-25T03:44:11;8.73;;;4.33;;
5923;SDS011;2987;50.884;14.818;2023-04-25T03:46:37;6.63;;;5.07;;
5923;SDS011;2987;50.884;14.818;2023-04-25T03:49:03;5.67;;;4.77;;
5923;SDS011;2987;50.884;14.818;2023-04-25T03:51:48;5.40;;;4.90;;
5923;SDS011;2987;50.884;14.818;2023-04-25T03:54:15;6.90;;;5.23;;
5923;SDS011;2987;50.884;14.818;2023-04-25T03:57:00;9.10;;;5.40;;
5923;SDS011;2987;50.884;14.818;2023-04-25T03:59:26;5.50;;;4.63;;
5923;SDS011;2987;50.884;14.818;2023-04-25T04:01:54;5.70;;;5.10;;
5923;SDS011;2987;50.884;14.818;2023-04-25T04:04:20;6.00;;;4.70;;
5923;SDS011;2987;50.884;14.818;2023-04-25T04:06:46;6.33;;;4.90;;
5923;SDS011;2987;50.884;14.818;2023-04-25T04:09:18;7.10;;;5.10;;
5923;SDS011;2987;50.884;14.818;2023-04-25T04:11:45;9.50;;;6.10;;
5923;SDS011;2987;50.884;14.818;2023-04-25T04:14:11;7.57;;;5.50;;
5923;SDS011;2987;50.884;14.818;2023-04-25T04:16:42;9.53;;;5.73;;
5923;SDS011;2987;50.884;14.818;2023-04-25T04:19:08;10.00;;;5.90;;
5923;SDS011;2987;50.884;14.818;2023-04-25T04:21:35;8.73;;;5.77;;
5923;SDS011;2987;50.884;14.818;2023-04-25T04:24:02;8.00;;;5.40;;
5923;SDS011;2987;50.884;14.818;2023-04-25T04:26:36;8.43;;;5.37;;
5923;SDS011;2987;50.884;14.818;2023-04-25T04:29:21;6.57;;;5.60;;
5923;SDS011;2987;50.884;14.818;2023-04-25T04:31:59;5.53;;;4.80;;
5923;SDS011;2987;50.884;14.818;2023-04-25T04:34:27;8.60;;;5.23;;
5923;SDS011;2987;50.884;14.818;2023-04-25T04:36:54;6.10;;;5.23;;
5923;SDS011;2987;50.884;14.818;2023-04-25T04:39:20;7.77;;;5.80;;
5923;SDS011;2987;50.884;14.818;2023-04-25T04:41:58;9.57;;;7.63;;
5923;SDS011;2987;50.884;14.818;2023-04-25T04:44:46;15.83;;;8.60;;
5923;SDS011;2987;50.884;14.818;2023-04-25T04:47:22;11.00;;;9.00;;
5923;SDS011;2987;50.884;14.818;2023-04-25T04:49:51;13.83;;;10.27;;
5923;SDS011;2987;50.884;14.818;2023-04-25T04:52:17;14.97;;;10.10;;
5923;SDS011;2987;50.884;14.818;2023-04-25T04:54:44;11.67;;;9.87;;
5923;SDS011;2987;50.884;14.818;2023-04-25T04:57:15;13.03;;;9.47;;
5923;SDS011;2987;50.884;14.818;2023-04-25T04:59:55;13.43;;;8.23;;
5923;SDS011;2987;50.884;14.818;2023-04-25T05:02:41;7.70;;;6.87;;
5923;SDS011;2987;50.884;14.818;2023-04-25T05:05:22;9.43;;;5.20;;
5923;SDS011;2987;50.884;14.818;2023-04-25T05:08:08;5.27;;;4.37;;
5923;SDS011;2987;50.884;14.818;2023-04-25T05:10:54;6.43;;;4.37;;
5923;SDS011;2987;50.884;14.818;2023-04-25T05:13:35;4.67;;;4.17;;
5923;SDS011;2987;50.884;14.818;2023-04-25T05:16:21;6.17;;;4.70;;
5923;SDS011;2987;50.884;14.818;2023-04-25T05:18:54;5.40;;;4.50;;
5923;SDS011;2987;50.884;14.818;2023-04-25T05:21:40;4.70;;;4.20;;
5923;SDS011;2987;50.884;14.818;2023-04-25T05:24:26;6.10;;;4.00;;
5923;SDS011;2987;50.884;14.818;2023-04-25T05:26:58;4.73;;;3.93;;
5923;SDS011;2987;50.884;14.818;2023-04-25T05:29:27;5.73;;;3.73;;
5923;SDS011;2987;50.884;14.818;2023-04-25T05:32:13;5.63;;;3.43;;
5923;SDS011;2987;50.884;14.818;2023-04-25T05:34:39;5.63;;;3.83;;
5923;SDS011;2987;50.884;14.818;2023-04-25T05:37:05;8.47;;;3.80;;
5923;SDS011;2987;50.884;14.818;2023-04-25T05:39:31;6.60;;;4.07;;
5923;SDS011;2987;50.884;14.818;2023-04-25T05:42:17;6.10;;;4.13;;
5923;SDS011;2987;50.884;14.818;2023-04-25T05:45:00;7.40;;;4.13;;
5923;SDS011;2987;50.884;14.818;2023-04-25T05:47:33;6.20;;;4.23;;
5923;SDS011;2987;50.884;14.818;2023-04-25T05:50:05;6.87;;;4.60;;
5923;SDS011;2987;50.884;14.818;2023-04-25T05:52:42;6.13;;;4.60;;
5923;SDS011;2987;50.884;14.818;2023-04-25T05:55:19;7.67;;;5.17;;
5923;SDS011;2987;50.884;14.818;2023-04-25T05:57:45;6.93;;;4.90;;
5923;SDS011;2987;50.884;14.818;2023-04-25T06:00:13;10.03;;;5.20;;
5923;SDS011;2987;50.884;14.818;2023-04-25T06:02:43;6.67;;;4.80;;
5923;SDS011;2987;50.884;14.818;2023-04-25T06:05:11;7.23;;;4.83;;
5923;SDS011;2987;50.884;14.818;2023-04-25T06:07:37;5.97;;;4.57;;
5923;SDS011;2987;50.884;14.818;2023-04-25T06:10:03;5.93;;;4.80;;
5923;SDS011;2987;50.884;14.818;2023-04-25T06:12:32;10.97;;;5.03;;
5923;SDS011;2987;50.884;14.818;2023-04-25T06:17:26;8.00;;;5.80;;
5923;SDS011;2987;50.884;14.818;2023-04-25T06:19:52;9.03;;;5.27;;
5923;SDS011;2987;50.884;14.818;2023-04-25T06:22:18;6.83;;;5.90;;
5923;SDS011;2987;50.884;14.818;2023-04-25T06:24:44;8.53;;;5.10;;
5923;SDS011;2987;50.884;14.818;2023-04-25T06:27:11;5.83;;;4.73;;
5923;SDS011;2987;50.884;14.818;2023-04-25T06:29:38;6.67;;;5.40;;
5923;SDS011;2987;50.884;14.818;2023-04-25T06:32:04;6.83;;;5.40;;
5923;SDS011;2987;50.884;14.818;2023-04-25T06:34:30;8.97;;;5.17;;
5923;SDS011;2987;50.884;14.818;2023-04-25T06:36:56;6.00;;;4.93;;
5923;SDS011;2987;50.884;14.818;2023-04-25T06:39:22;5.83;;;4.23;;
5923;SDS011;2987;50.884;14.818;2023-04-25T06:41:50;6.17;;;4.43;;
5923;SDS011;2987;50.884;14.818;2023-04-25T06:44:36;7.07;;;4.50;;
5923;SDS011;2987;50.884;14.818;2023-04-25T06:47:02;5.57;;;4.67;;
5923;SDS011;2987;50.884;14.818;2023-04-25T06:49:28;6.93;;;4.33;;
5923;SDS011;2987;50.884;14.818;2023-04-25T06:51:54;6.73;;;4.27;;
5923;SDS011;2987;50.884;14.818;2023-04-25T06:54:20;9.37;;;4.50;;
5923;SDS011;2987;50.884;14.818;2023-04-25T06:56:57;8.20;;;4.10;;
5923;SDS011;2987;50.884;14.818;2023-04-25T06:59:25;10.77;;;3.87;;
5923;SDS011;2987;50.884;14.818;2023-04-25T07:01:51;8.53;;;4.17;;
5923;SDS011;2987;50.884;14.818;2023-04-25T07:04:21;7.27;;;3.70;;
5923;SDS011;2987;50.884;14.818;2023-04-25T07:06:50;5.20;;;3.70;;
5923;SDS011;2987;50.884;14.818;2023-04-25T07:09:21;7.70;;;4.27;;
5923;SDS011;2987;50.884;14.818;2023-04-25T07:11:49;6.50;;;3.90;;
5923;SDS011;2987;50.884;14.818;2023-04-25T07:14:15;6.40;;;3.90;;
5923;SDS011;2987;50.884;14.818;2023-04-25T07:16:42;7.13;;;3.93;;
5923;SDS011;2987;50.884;14.818;2023-04-25T07:19:08;6.47;;;3.50;;
5923;SDS011;2987;50.884;14.818;2023-04-25T07:21:34;5.60;;;3.67;;
5923;SDS011;2987;50.884;14.818;2023-04-25T07:24:02;5.77;;;3.70;;
5923;SDS011;2987;50.884;14.818;2023-04-25T07:26:33;8.70;;;3.60;;
5923;SDS011;2987;50.884;14.818;2023-04-25T07:29:14;7.07;;;3.30;;
5923;SDS011;2987;50.884;14.818;2023-04-25T07:31:40;5.57;;;3.17;;
5923;SDS011;2987;50.884;14.818;2023-04-25T07:34:06;4.53;;;2.90;;
5923;SDS011;2987;50.884;14.818;2023-04-25T07:36:34;6.93;;;3.50;;
5923;SDS011;2987;50.884;14.818;2023-04-25T07:39:00;5.07;;;2.83;;
5923;SDS011;2987;50.884;14.818;2023-04-25T07:41:27;4.73;;;2.60;;
5923;SDS011;2987;50.884;14.818;2023-04-25T07:43:53;4.63;;;2.90;;
5923;SDS011;2987;50.884;14.818;2023-04-25T07:46:20;4.33;;;2.60;;
5923;SDS011;2987;50.884;14.818;2023-04-25T07:48:46;4.23;;;2.53;;
5923;SDS011;2987;50.884;14.818;2023-04-25T07:51:12;4.70;;;2.50;;
5923;SDS011;2987;50.884;14.818;2023-04-25T07:53:39;4.17;;;2.40;;
5923;SDS011;2987;50.884;14.818;2023-04-25T07:56:10;4.60;;;2.63;;
5923;SDS011;2987;50.884;14.818;2023-04-25T07:58:39;7.60;;;2.80;;
5923;SDS011;2987;50.884;14.818;2023-04-25T08:01:09;6.30;;;2.60;;
5923;SDS011;2987;50.884;14.818;2023-04-25T08:03:54;9.60;;;3.03;;
5923;SDS011;2987;50.884;14.818;2023-04-25T08:06:26;5.43;;;2.50;;
5923;SDS011;2987;50.884;14.818;2023-04-25T08:09:02;3.57;;;2.23;;
5923;SDS011;2987;50.884;14.818;2023-04-25T08:11:35;3.77;;;2.40;;
5923;SDS011;2987;50.884;14.818;2023-04-25T08:14:01;3.97;;;2.20;;
5923;SDS011;2987;50.884;14.818;2023-04-25T08:16:27;5.00;;;2.30;;
5923;SDS011;2987;50.884;14.818;2023-04-25T08:18:53;4.07;;;1.97;;
5923;SDS011;2987;50.884;14.818;2023-04-25T08:21:20;4.73;;;1.70;;
5923;SDS011;2987;50.884;14.818;2023-04-25T08:23:46;3.77;;;2.30;;
5923;SDS011;2987;50.884;14.818;2023-04-25T08:26:20;2.67;;;2.40;;
5923;SDS011;2987;50.884;14.818;2023-04-25T08:28:48;4.47;;;2.67;;
5923;SDS011;2987;50.884;14.818;2023-04-25T08:31:14;5.80;;;2.90;;
5923;SDS011;2987;50.884;14.818;2023-04-25T08:33:50;4.30;;;2.43;;
5923;SDS011;2987;50.884;14.818;2023-04-25T08:36:30;3.20;;;2.20;;
5923;SDS011;2987;50.884;14.818;2023-04-25T08:38:57;3.93;;;2.40;;
5923;SDS011;2987;50.884;14.818;2023-04-25T08:41:24;4.57;;;2.60;;
5923;SDS011;2987;50.884;14.818;2023-04-25T08:43:52;5.50;;;2.80;;
5923;SDS011;2987;50.884;14.818;2023-04-25T08:46:22;8.23;;;2.97;;
5923;SDS011;2987;50.884;14.818;2023-04-25T08:49:08;5.40;;;2.70;;
5923;SDS011;2987;50.884;14.818;2023-04-25T08:51:34;6.73;;;2.87;;
5923;SDS011;2987;50.884;14.818;2023-04-25T08:54:08;7.53;;;3.00;;
5923;SDS011;2987;50.884;14.818;2023-04-25T08:56:38;7.07;;;3.00;;
5923;SDS011;2987;50.884;14.818;2023-04-25T08:59:06;2.87;;;2.60;;
5923;SDS011;2987;50.884;14.818;2023-04-25T09:01:34;4.97;;;2.53;;
5923;SDS011;2987;50.884;14.818;2023-04-25T09:04:01;4.63;;;2.80;;
5923;SDS011;2987;50.884;14.818;2023-04-25T09:06:29;5.03;;;2.87;;
5923;SDS011;2987;50.884;14.818;2023-04-25T09:09:04;3.00;;;2.43;;
5923;SDS011;2987;50.884;14.818;2023-04-25T09:11:32;5.53;;;2.50;;
5923;SDS011;2987;50.884;14.818;2023-04-25T09:14:10;6.73;;;2.50;;
5923;SDS011;2987;50.884;14.818;2023-04-25T09:17:01;4.80;;;2.60;;
5923;SDS011;2987;50.884;14.818;2023-04-25T09:19:38;4.23;;;2.40;;
5923;SDS011;2987;50.884;14.818;2023-04-25T09:22:06;4.27;;;2.53;;
5923;SDS011;2987;50.884;14.818;2023-04-25T09:24:34;5.50;;;2.37;;
5923;SDS011;2987;50.884;14.818;2023-04-25T09:27:10;4.40;;;2.67;;
5923;SDS011;2987;50.884;14.818;2023-04-25T09:29:38;4.03;;;2.43;;
5923;SDS011;2987;50.884;14.818;2023-04-25T09:32:22;4.20;;;2.70;;
5923;SDS011;2987;50.884;14.818;2023-04-25T09:34:53;3.63;;;2.30;;
5923;SDS011;2987;50.884;14.818;2023-04-25T09:37:23;4.97;;;2.63;;
5923;SDS011;2987;50.884;14.818;2023-04-25T09:40:12;4.53;;;2.20;;
5923;SDS011;2987;50.884;14.818;2023-04-25T09:42:50;4.37;;;2.57;;
5923;SDS011;2987;50.884;14.818;2023-04-25T09:45:17;3.57;;;2.30;;
5923;SDS011;2987;50.884;14.818;2023-04-25T09:47:43;3.50;;;2.60;;
5923;SDS011;2987;50.884;14.818;2023-04-25T09:50:15;4.20;;;2.60;;
5923;SDS011;2987;50.884;14.818;2023-04-25T09:52:44;4.47;;;2.47;;
5923;SDS011;2987;50.884;14.818;2023-04-25T09:55:17;6.40;;;2.40;;
5923;SDS011;2987;50.884;14.818;2023-04-25T09:57:45;3.10;;;2.20;;
5923;SDS011;2987;50.884;14.818;2023-04-25T10:00:18;3.63;;;2.17;;
5923;SDS011;2987;50.884;14.818;2023-04-25T10:02:46;3.53;;;2.33;;
5923;SDS011;2987;50.884;14.818;2023-04-25T10:05:16;5.43;;;2.70;;
5923;SDS011;2987;50.884;14.818;2023-04-25T10:07:42;4.53;;;2.63;;
5923;SDS011;2987;50.884;14.818;2023-04-25T10:10:12;5.57;;;2.77;;
5923;SDS011;2987;50.884;14.818;2023-04-25T10:12:39;4.77;;;2.27;;
5923;SDS011;2987;50.884;14.818;2023-04-25T10:15:05;3.60;;;2.57;;
5923;SDS011;2987;50.884;14.818;2023-04-25T10:17:34;3.40;;;2.27;;
5923;SDS011;2987;50.884;14.818;2023-04-25T10:20:02;2.83;;;2.00;;
5923;SDS011;2987;50.884;14.818;2023-04-25T10:22:33;4.87;;;2.30;;
5923;SDS011;2987;50.884;14.818;2023-04-25T10:25:02;3.40;;;2.30;;
5923;SDS011;2987;50.884;14.818;2023-04-25T10:27:30;3.80;;;2.20;;
5923;SDS011;2987;50.884;14.818;2023-04-25T10:30:05;4.50;;;2.53;;
5923;SDS011;2987;50.884;14.818;2023-04-25T10:32:36;2.93;;;2.03;;
5923;SDS011;2987;50.884;14.818;2023-04-25T10:35:12;3.00;;;1.57;;
5923;SDS011;2987;50.884;14.818;2023-04-25T10:37:56;2.13;;;1.90;;
5923;SDS011;2987;50.884;14.818;2023-04-25T10:40:31;4.33;;;2.00;;
5923;SDS011;2987;50.884;14.818;2023-04-25T10:46:12;2.83;;;1.97;;
5923;SDS011;2987;50.884;14.818;2023-04-25T10:48:44;1.73;;;1.57;;
5923;SDS011;2987;50.884;14.818;2023-04-25T10:53:56;3.83;;;1.77;;
5923;SDS011;2987;50.884;14.818;2023-04-25T10:56:25;5.37;;;2.00;;
5923;SDS011;2987;50.884;14.818;2023-04-25T11:01:40;3.03;;;1.97;;
5923;SDS011;2987;50.884;14.818;2023-04-25T11:04:25;3.00;;;2.00;;
5923;SDS011;2987;50.884;14.818;2023-04-25T11:12:04;5.83;;;2.10;;
5923;SDS011;2987;50.884;14.818;2023-04-25T11:14:32;3.40;;;2.10;;
5923;SDS011;2987;50.884;14.818;2023-04-25T11:16:58;2.23;;;1.70;;
5923;SDS011;2987;50.884;14.818;2023-04-25T11:19:26;4.13;;;1.70;;
5923;SDS011;2987;50.884;14.818;2023-04-25T11:21:57;3.27;;;1.90;;
5923;SDS011;2987;50.884;14.818;2023-04-25T11:24:26;1.73;;;1.60;;
5923;SDS011;2987;50.884;14.818;2023-04-25T11:26:54;4.50;;;1.93;;
5923;SDS011;2987;50.884;14.818;2023-04-25T11:29:22;1.87;;;1.63;;
5923;SDS011;2987;50.884;14.818;2023-04-25T11:31:50;3.37;;;2.23;;
5923;SDS011;2987;50.884;14.818;2023-04-25T11:34:17;3.90;;;2.13;;
5923;SDS011;2987;50.884;14.818;2023-04-25T11:36:44;5.47;;;2.50;;
5923;SDS011;2987;50.884;14.818;2023-04-25T11:39:11;4.57;;;2.40;;
5923;SDS011;2987;50.884;14.818;2023-04-25T11:41:37;6.13;;;2.70;;
5923;SDS011;2987;50.884;14.818;2023-04-25T11:44:03;5.20;;;3.13;;
5923;SDS011;2987;50.884;14.818;2023-04-25T11:46:33;6.30;;;3.17;;
5923;SDS011;2987;50.884;14.818;2023-04-25T11:49:00;9.07;;;3.40;;
5923;SDS011;2987;50.884;14.818;2023-04-25T11:51:26;7.63;;;3.40;;
5923;SDS011;2987;50.884;14.818;2023-04-25T11:53:52;3.20;;;2.90;;
5923;SDS011;2987;50.884;14.818;2023-04-25T11:56:18;5.57;;;3.27;;
5923;SDS011;2987;50.884;14.818;2023-04-25T11:59:02;3.73;;;2.60;;
5923;SDS011;2987;50.884;14.818;2023-04-25T12:01:30;3.50;;;2.60;;
5923;SDS011;2987;50.884;14.818;2023-04-25T12:03:57;3.50;;;2.60;;
5923;SDS011;2987;50.884;14.818;2023-04-25T12:06:27;4.70;;;3.00;;
5923;SDS011;2987;50.884;14.818;2023-04-25T12:09:02;4.07;;;3.03;;
5923;SDS011;2987;50.884;14.818;2023-04-25T12:11:30;6.33;;;3.30;;
5923;SDS011;2987;50.884;14.818;2023-04-25T12:14:02;4.20;;;3.10;;
5923;SDS011;2987;50.884;14.818;2023-04-25T12:16:39;11.13;;;2.80;;
5923;SDS011;2987;50.884;14.818;2023-04-25T12:19:06;5.63;;;3.20;;
5923;SDS011;2987;50.884;14.818;2023-04-25T12:21:32;5.67;;;3.13;;
5923;SDS011;2987;50.884;14.818;2023-04-25T12:24:09;4.60;;;2.70;;
5923;SDS011;2987;50.884;14.818;2023-04-25T12:27:00;4.57;;;2.80;;
5923;SDS011;2987;50.884;14.818;2023-04-25T12:29:27;7.17;;;2.57;;
5923;SDS011;2987;50.884;14.818;2023-04-25T12:31:55;3.70;;;2.27;;
5923;SDS011;2987;50.884;14.818;2023-04-25T12:34:22;3.40;;;2.50;;
5923;SDS011;2987;50.884;14.818;2023-04-25T12:36:49;4.07;;;2.63;;
5923;SDS011;2987;50.884;14.818;2023-04-25T12:39:17;3.20;;;2.47;;
5923;SDS011;2987;50.884;14.818;2023-04-25T12:41:45;3.93;;;2.50;;
5923;SDS011;2987;50.884;14.818;2023-04-25T12:44:12;2.40;;;2.00;;
5923;SDS011;2987;50.884;14.818;2023-04-25T12:46:38;2.00;;;1.90;;
5923;SDS011;2987;50.884;14.818;2023-04-25T12:49:06;2.80;;;2.00;;
5923;SDS011;2987;50.884;14.818;2023-04-25T12:51:34;5.23;;;2.20;;
5923;SDS011;2987;50.884;14.818;2023-04-25T12:54:00;4.60;;;2.03;;
5923;SDS011;2987;50.884;14.818;2023-04-25T12:56:28;2.77;;;2.20;;
5923;SDS011;2987;50.884;14.818;2023-04-25T12:58:55;3.37;;;2.13;;
5923;SDS011;2987;50.884;14.818;2023-04-25T13:01:21;4.47;;;2.40;;
5923;SDS011;2987;50.884;14.818;2023-04-25T13:03:47;5.10;;;2.13;;
5923;SDS011;2987;50.884;14.818;2023-04-25T13:06:14;2.90;;;1.97;;
5923;SDS011;2987;50.884;14.818;2023-04-25T13:08:41;4.80;;;2.20;;
5923;SDS011;2987;50.884;14.818;2023-04-25T13:11:08;3.90;;;2.40;;
5923;SDS011;2987;50.884;14.818;2023-04-25T13:13:34;7.27;;;3.10;;
5923;SDS011;2987;50.884;14.818;2023-04-25T13:16:02;4.37;;;2.97;;
5923;SDS011;2987;50.884;14.818;2023-04-25T13:18:30;6.63;;;3.20;;
5923;SDS011;2987;50.884;14.818;2023-04-25T13:20:57;3.90;;;3.17;;
5923;SDS011;2987;50.884;14.818;2023-04-25T13:23:25;5.50;;;3.17;;
5923;SDS011;2987;50.884;14.818;2023-04-25T13:25:52;6.13;;;4.40;;
5923;SDS011;2987;50.884;14.818;2023-04-25T13:28:19;5.77;;;3.73;;
5923;SDS011;2987;50.884;14.818;2023-04-25T13:30:45;5.43;;;3.80;;
5923;SDS011;2987;50.884;14.818;2023-04-25T13:33:12;5.03;;;4.50;;
5923;SDS011;2987;50.884;14.818;2023-04-25T13:35:38;8.30;;;4.33;;
5923;SDS011;2987;50.884;14.818;2023-04-25T13:38:05;5.63;;;3.80;;
5923;SDS011;2987;50.884;14.818;2023-04-25T13:40:30;5.40;;;3.63;;
5923;SDS011;2987;50.884;14.818;2023-04-25T13:42:57;8.97;;;3.90;;
5923;SDS011;2987;50.884;14.818;2023-04-25T13:45:24;6.10;;;3.70;;
5923;SDS011;2987;50.884;14.818;2023-04-25T13:47:50;5.63;;;3.43;;
5923;SDS011;2987;50.884;14.818;2023-04-25T13:50:16;8.80;;;3.33;;
5923;SDS011;2987;50.884;14.818;2023-04-25T13:52:42;3.07;;;2.77;;
5923;SDS011;2987;50.884;14.818;2023-04-25T13:55:08;9.17;;;3.10;;
5923;SDS011;2987;50.884;14.818;2023-04-25T13:57:35;3.20;;;2.60;;
5923;SDS011;2987;50.884;14.818;2023-04-25T14:00:03;5.23;;;2.57;;
5923;SDS011;2987;50.884;14.818;2023-04-25T14:02:34;3.93;;;2.20;;
5923;SDS011;2987;50.884;14.818;2023-04-25T14:05:01;5.57;;;2.20;;
5923;SDS011;2987;50.884;14.818;2023-04-25T14:07:28;2.93;;;1.90;;
5923;SDS011;2987;50.884;14.818;2023-04-25T14:09:55;3.03;;;1.97;;
5923;SDS011;2987;50.884;14.818;2023-04-25T14:12:22;4.70;;;1.97;;
5923;SDS011;2987;50.884;14.818;2023-04-25T14:14:49;5.07;;;1.77;;
5923;SDS011;2987;50.884;14.818;2023-04-25T14:17:15;3.53;;;1.63;;
5923;SDS011;2987;50.884;14.818;2023-04-25T14:19:41;3.73;;;2.13;;
5923;SDS011;2987;50.884;14.818;2023-04-25T14:22:11;5.27;;;2.20;;
5923;SDS011;2987;50.884;14.818;2023-04-25T14:24:37;5.03;;;2.20;;
5923;SDS011;2987;50.884;14.818;2023-04-25T14:27:03;5.30;;;2.90;;
5923;SDS011;2987;50.884;14.818;2023-04-25T14:29:30;5.33;;;2.43;;
5923;SDS011;2987;50.884;14.818;2023-04-25T14:31:56;3.17;;;2.07;;
5923;SDS011;2987;50.884;14.818;2023-04-25T14:34:23;7.97;;;2.33;;
5923;SDS011;2987;50.884;14.818;2023-04-25T14:36:49;4.27;;;2.23;;
5923;SDS011;2987;50.884;14.818;2023-04-25T14:39:15;4.73;;;2.20;;
5923;SDS011;2987;50.884;14.818;2023-04-25T14:41:42;5.07;;;2.70;;
5923;SDS011;2987;50.884;14.818;2023-04-25T14:44:08;7.20;;;2.70;;
5923;SDS011;2987;50.884;14.818;2023-04-25T14:46:34;4.53;;;2.40;;
5923;SDS011;2987;50.884;14.818;2023-04-25T14:49:00;7.00;;;2.80;;
5923;SDS011;2987;50.884;14.818;2023-04-25T14:51:26;7.90;;;2.93;;
5923;SDS011;2987;50.884;14.818;2023-04-25T14:53:52;12.13;;;2.93;;
5923;SDS011;2987;50.884;14.818;2023-04-25T14:56:18;9.10;;;3.10;;
5923;SDS011;2987;50.884;14.818;2023-04-25T14:58:44;9.73;;;2.90;;
5923;SDS011;2987;50.884;14.818;2023-04-25T15:01:11;8.13;;;2.70;;
5923;SDS011;2987;50.884;14.818;2023-04-25T15:03:38;8.20;;;2.67;;
5923;SDS011;2987;50.884;14.818;2023-04-25T15:06:05;8.87;;;2.97;;
5923;SDS011;2987;50.884;14.818;2023-04-25T15:08:31;8.60;;;3.40;;
5923;SDS011;2987;50.884;14.818;2023-04-25T15:10:58;11.57;;;3.67;;
5923;SDS011;2987;50.884;14.818;2023-04-25T15:13:24;7.53;;;3.60;;
5923;SDS011;2987;50.884;14.818;2023-04-25T15:15:51;8.73;;;3.70;;
5923;SDS011;2987;50.884;14.818;2023-04-25T15:18:20;6.93;;;3.80;;
5923;SDS011;2987;50.884;14.818;2023-04-25T15:20:48;9.30;;;3.67;;
5923;SDS011;2987;50.884;14.818;2023-04-25T15:23:15;10.53;;;3.97;;
5923;SDS011;2987;50.884;14.818;2023-04-25T15:25:41;12.80;;;3.80;;
5923;SDS011;2987;50.884;14.818;2023-04-25T15:28:07;10.23;;;3.93;;
5923;SDS011;2987;50.884;14.818;2023-04-25T15:30:34;9.07;;;3.83;;
5923;SDS011;2987;50.884;14.818;2023-04-25T15:33:00;12.60;;;4.40;;